createdAt,value
2019-05-28T00:00:21.268Z,27.17
2019-05-28T00:02:48.133Z,26.30
2019-05-28T00:05:15.412Z,24.37
2019-05-28T00:07:42.495Z,26.00
2019-05-28T00:10:09.757Z,24.17
2019-05-28T00:12:36.917Z,28.67
2019-05-28T00:15:04.707Z,23.60
2019-05-28T00:17:31.584Z,21.03
2019-05-28T00:19:58.465Z,23.90
2019-05-28T00:22:25.324Z,26.83
2019-05-28T00:24:52.211Z,24.23
2019-05-28T00:27:19.091Z,28.20
2019-05-28T00:29:45.964Z,27.73
2019-05-28T00:32:13.109Z,26.63
2019-05-28T00:34:40.038Z,26.60
2019-05-28T00:37:06.996Z,24.67
2019-05-28T00:39:34.055Z,23.77
2019-05-28T00:42:01.136Z,39.77
2019-05-28T00:44:28.205Z,28.47
2019-05-28T00:46:55.175Z,26.63
2019-05-28T00:49:22.353Z,26.40
2019-05-28T00:51:50.200Z,29.97
2019-05-28T00:54:17.272Z,29.20
2019-05-28T00:56:44.503Z,23.80
2019-05-28T00:59:12.368Z,32.13
2019-05-28T01:01:39.572Z,33.60
2019-05-28T01:04:06.644Z,27.43
2019-05-28T01:06:33.618Z,25.37
2019-05-28T01:09:00.579Z,26.17
2019-05-28T01:11:27.710Z,26.53
2019-05-28T01:13:54.577Z,25.70
2019-05-28T01:16:21.438Z,26.80
2019-05-28T01:18:49.068Z,27.10
2019-05-28T01:21:16.115Z,26.83
2019-05-28T01:23:43.188Z,28.80
2019-05-28T01:26:10.167Z,25.80
2019-05-28T01:28:37.126Z,29.63
2019-05-28T01:31:04.184Z,27.20
2019-05-28T01:33:31.432Z,30.00
2019-05-28T01:35:58.655Z,28.03
2019-05-28T01:38:25.532Z,27.93
2019-05-28T01:40:52.397Z,26.07
2019-05-28T01:43:19.359Z,25.03
2019-05-28T01:45:46.376Z,24.53
2019-05-28T01:48:13.338Z,27.20
2019-05-28T02:01:27.643Z,26.53
2019-05-28T02:03:54.543Z,25.07
2019-05-28T02:06:21.493Z,26.60
2019-05-28T02:08:48.424Z,25.53
2019-05-28T02:11:15.363Z,26.63
2019-05-28T02:13:42.324Z,25.60
2019-05-28T02:16:09.184Z,25.73
2019-05-28T02:18:36.102Z,24.30
2019-05-28T02:21:03.260Z,24.27
2019-05-28T02:23:30.128Z,23.20
2019-05-28T02:25:57.001Z,22.90
2019-05-28T02:28:24.081Z,23.27
2019-05-28T02:30:50.937Z,24.03
2019-05-28T02:33:17.810Z,21.17
2019-05-28T02:35:44.696Z,23.30
2019-05-28T02:38:11.559Z,21.10
2019-05-28T02:40:38.428Z,23.20
2019-05-28T02:43:05.303Z,21.37
2019-05-28T02:45:32.630Z,22.93
2019-05-28T02:47:59.604Z,24.57
2019-05-28T02:50:55.768Z,23.10
2019-05-28T02:53:22.962Z,22.50
2019-05-28T02:55:51.336Z,21.93
2019-05-28T02:58:18.709Z,23.87
2019-05-28T03:00:47.988Z,22.80
2019-05-28T03:03:15.555Z,22.83
2019-05-28T03:05:43.143Z,19.80
2019-05-28T03:08:10.945Z,20.20
2019-05-28T03:11:01.879Z,22.00
2019-05-28T03:13:07.775Z,24.10
2019-05-28T03:15:38.484Z,24.80
2019-05-28T03:18:07.709Z,21.23
2019-05-28T03:20:36.380Z,22.00
2019-05-28T03:23:05.180Z,19.70
2019-05-28T03:25:34.224Z,21.53
2019-05-28T03:28:01.193Z,23.17
2019-05-28T03:30:28.148Z,20.77
2019-05-28T03:32:55.046Z,22.53
2019-05-28T03:35:22.312Z,22.77
2019-05-28T03:37:51.920Z,23.47
2019-05-28T03:40:27.907Z,21.87
2019-05-28T03:42:54.784Z,21.00
2019-05-28T03:45:21.650Z,22.00
2019-05-28T03:47:48.508Z,25.80
2019-05-28T03:50:15.468Z,21.20
2019-05-28T03:52:42.337Z,22.00
2019-05-28T03:55:09.412Z,24.30
2019-05-28T03:57:36.277Z,21.00
2019-05-28T04:00:04.256Z,25.97
2019-05-28T04:02:31.137Z,24.80
2019-05-28T04:04:58.013Z,19.77
2019-05-28T04:07:25.000Z,29.70
2019-05-28T04:09:51.882Z,27.80
2019-05-28T04:12:18.868Z,25.90
2019-05-28T04:14:46.213Z,28.30
2019-05-28T04:17:13.184Z,28.83
2019-05-28T04:19:40.422Z,25.53
2019-05-28T04:22:07.272Z,24.80
2019-05-28T04:24:34.147Z,25.57
2019-05-28T04:27:01.351Z,26.90
2019-05-28T04:29:28.463Z,28.47
2019-05-28T04:31:55.664Z,28.47
2019-05-28T04:34:22.538Z,25.90
2019-05-28T04:36:50.008Z,29.83
2019-05-28T04:39:16.977Z,27.67
2019-05-28T04:41:43.854Z,29.40
2019-05-28T04:44:10.715Z,27.23
2019-05-28T04:46:37.684Z,29.63
2019-05-28T04:49:04.555Z,27.67
2019-05-28T04:51:31.414Z,32.10
2019-05-28T04:53:58.276Z,29.83
2019-05-28T04:56:25.163Z,29.47
2019-05-28T04:58:52.124Z,28.80
2019-05-28T05:01:18.976Z,28.97
2019-05-28T05:03:45.908Z,26.00
2019-05-28T05:06:12.762Z,30.73
2019-05-28T05:08:39.649Z,30.33
2019-05-28T05:11:06.545Z,29.13
2019-05-28T05:13:33.417Z,34.70
2019-05-28T05:16:00.284Z,29.03
2019-05-28T05:18:27.166Z,33.33
2019-05-28T05:20:54.145Z,28.93
2019-05-28T05:23:21.553Z,26.37
2019-05-28T05:25:48.500Z,28.63
2019-05-28T05:28:15.447Z,29.23
2019-05-28T05:30:42.380Z,29.77
2019-05-28T05:33:19.686Z,26.23
2019-05-28T05:35:38.056Z,26.87
2019-05-28T05:38:05.157Z,28.80
2019-05-28T05:40:32.213Z,30.57
2019-05-28T05:42:59.280Z,31.83
2019-05-28T05:45:26.153Z,31.40
2019-05-28T05:47:53.117Z,31.30
2019-05-28T05:50:20.207Z,26.87
2019-05-28T05:52:47.180Z,27.60
2019-05-28T05:55:14.240Z,25.20
2019-05-28T05:57:41.454Z,24.30
2019-05-28T06:00:11.668Z,22.20
2019-05-28T06:02:38.217Z,23.50
2019-05-28T06:05:05.767Z,25.63
2019-05-28T06:07:32.717Z,23.53
2019-05-28T06:10:01.939Z,25.77
2019-05-28T06:12:28.959Z,21.57
2019-05-28T06:14:55.852Z,28.30
2019-05-28T06:17:22.797Z,23.40
2019-05-28T06:19:49.679Z,24.20
2019-05-28T06:22:16.868Z,22.20
2019-05-28T06:24:43.831Z,22.07
2019-05-28T06:27:10.711Z,22.00
2019-05-28T06:29:37.636Z,23.20
2019-05-28T06:32:04.741Z,18.00
2019-05-28T06:34:31.693Z,25.33
2019-05-28T06:36:58.674Z,18.13
2019-05-28T06:39:25.537Z,17.50
2019-05-28T06:41:52.409Z,18.10
2019-05-28T06:44:19.381Z,18.90
2019-05-28T06:46:46.245Z,21.37
2019-05-28T06:49:13.216Z,18.10
2019-05-28T06:51:40.077Z,18.30
2019-05-28T06:54:07.248Z,18.43
2019-05-28T06:56:34.244Z,16.80
2019-05-28T06:59:01.230Z,16.43
2019-05-28T07:01:28.783Z,17.70
2019-05-28T07:04:12.460Z,21.30
2019-05-28T07:06:25.168Z,16.33
2019-05-28T07:08:52.036Z,18.07
2019-05-28T07:11:19.028Z,21.13
2019-05-28T07:13:46.243Z,16.90
2019-05-28T07:16:13.125Z,18.13
2019-05-28T07:18:40.035Z,23.13
2019-05-28T07:21:07.160Z,17.83
2019-05-28T07:23:34.056Z,23.47
2019-05-28T07:26:00.924Z,16.70
2019-05-28T07:28:28.057Z,16.47
2019-05-28T07:30:55.026Z,15.60
2019-05-28T07:33:21.977Z,16.90
2019-05-28T07:35:48.846Z,16.90
2019-05-28T07:38:15.836Z,16.47
2019-05-28T07:40:42.704Z,16.20
2019-05-28T07:43:09.676Z,17.67
2019-05-28T07:45:36.543Z,20.40
2019-05-28T07:48:03.608Z,16.53
2019-05-28T07:50:30.465Z,16.13
2019-05-28T07:52:57.340Z,16.47
2019-05-28T07:55:24.314Z,16.50
2019-05-28T07:57:51.440Z,19.00
2019-05-28T08:00:28.005Z,16.30
2019-05-28T08:02:55.320Z,16.17
2019-05-28T08:05:22.187Z,17.30
2019-05-28T08:07:49.153Z,16.50
2019-05-28T08:10:16.128Z,20.60
2019-05-28T08:12:42.995Z,18.53
2019-05-28T08:15:10.162Z,20.17
2019-05-28T08:17:37.390Z,20.33
2019-05-28T08:20:05.008Z,18.37
2019-05-28T08:22:41.575Z,22.43
2019-05-28T08:25:00.965Z,21.93
2019-05-28T08:27:27.823Z,20.97
2019-05-28T08:29:54.672Z,20.63
2019-05-28T08:32:21.637Z,18.87
2019-05-28T08:35:04.126Z,21.57
2019-05-28T08:37:17.293Z,22.07
2019-05-28T08:39:44.148Z,19.93
2019-05-28T08:42:11.133Z,22.67
2019-05-28T08:44:37.985Z,20.30
2019-05-28T08:47:04.946Z,19.60
2019-05-28T08:49:31.807Z,25.43
2019-05-28T08:51:58.944Z,25.23
2019-05-28T08:54:25.845Z,22.27
2019-05-28T08:56:52.724Z,24.00
2019-05-28T08:59:20.375Z,22.03
2019-05-28T09:01:47.344Z,23.83
2019-05-28T09:04:14.320Z,25.00
2019-05-28T09:06:41.179Z,21.33
2019-05-28T09:09:08.162Z,20.67
2019-05-28T09:11:35.051Z,23.30
2019-05-28T09:14:02.126Z,21.77
2019-05-28T09:16:29.005Z,24.90
2019-05-28T09:18:56.076Z,22.80
2019-05-28T09:21:22.940Z,22.30
2019-05-28T09:23:49.825Z,27.07
2019-05-28T09:26:16.684Z,26.40
2019-05-28T09:28:43.565Z,22.17
2019-05-28T09:31:10.529Z,25.37
2019-05-28T09:33:37.594Z,25.50
2019-05-28T09:36:08.507Z,22.43
2019-05-28T09:38:33.731Z,22.37
2019-05-28T09:41:00.713Z,22.70
2019-05-28T09:43:27.560Z,26.20
2019-05-28T09:45:54.435Z,22.07
2019-05-28T09:48:21.409Z,20.77
2019-05-28T09:50:51.288Z,21.10
2019-05-28T09:53:17.220Z,24.03
2019-05-28T09:55:44.110Z,23.67
2019-05-28T09:58:11.129Z,31.50
2019-05-28T10:00:56.209Z,27.20
2019-05-28T10:03:07.554Z,26.77
2019-05-28T10:05:34.625Z,21.47
2019-05-28T10:08:01.677Z,26.47
2019-05-28T10:10:28.846Z,22.50
2019-05-28T10:12:55.779Z,21.60
2019-05-28T10:15:24.437Z,28.50
2019-05-28T10:17:51.413Z,25.73
2019-05-28T10:20:20.364Z,25.17
2019-05-28T10:22:47.333Z,24.53
2019-05-28T10:25:16.416Z,27.33
2019-05-28T10:27:59.118Z,26.13
2019-05-28T10:30:13.063Z,24.80
2019-05-28T10:32:40.279Z,26.60
2019-05-28T10:35:07.756Z,31.30
2019-05-28T10:37:34.683Z,32.43
2019-05-28T10:40:01.889Z,27.90
2019-05-28T10:42:29.192Z,25.00
2019-05-28T10:44:56.056Z,29.67
2019-05-28T10:47:23.032Z,31.83
2019-05-28T10:49:51.067Z,26.70
2019-05-28T10:52:18.380Z,26.30
2019-05-28T10:54:45.355Z,25.60
2019-05-28T10:57:12.436Z,29.13
2019-05-28T10:59:39.365Z,28.13
2019-05-28T11:02:06.344Z,25.57
2019-05-28T11:04:33.403Z,24.03
2019-05-28T11:07:00.260Z,25.87
2019-05-28T11:09:27.155Z,26.90
2019-05-28T11:11:54.401Z,25.47
2019-05-28T11:14:21.781Z,26.63
2019-05-28T11:16:48.771Z,25.90
2019-05-28T11:19:15.640Z,30.60
2019-05-28T11:21:42.546Z,28.07
2019-05-28T11:24:09.801Z,25.07
2019-05-28T11:26:36.945Z,27.40
2019-05-28T11:29:04.077Z,25.43
2019-05-28T11:31:31.056Z,29.30
2019-05-28T11:33:57.920Z,27.53
2019-05-28T11:36:25.115Z,30.40
2019-05-28T11:38:52.207Z,27.57
2019-05-28T11:41:19.705Z,24.70
2019-05-28T11:43:46.856Z,25.20
2019-05-28T11:46:13.824Z,21.80
2019-05-28T11:48:40.927Z,25.90
2019-05-28T11:51:07.779Z,26.73
2019-05-28T11:53:36.958Z,29.27
2019-05-28T11:56:04.088Z,32.17
2019-05-28T11:58:30.953Z,29.50
2019-05-28T12:00:58.279Z,26.57
2019-05-28T12:03:25.132Z,16.87
2019-05-28T12:05:52.373Z,22.80
2019-05-28T12:08:19.336Z,26.47
2019-05-28T12:10:46.286Z,22.13
2019-05-28T12:13:13.366Z,40.80
2019-05-28T12:15:40.439Z,44.03
2019-05-28T12:18:07.278Z,50.63
2019-05-28T12:20:35.248Z,55.53
2019-05-28T12:23:11.132Z,57.80
2019-05-28T12:25:31.285Z,40.87
2019-05-28T12:27:58.176Z,42.73
2019-05-28T12:30:27.135Z,32.57
2019-05-28T12:32:54.437Z,35.07
2019-05-28T12:35:28.710Z,45.17
2019-05-28T12:37:51.100Z,43.43
2019-05-28T12:40:19.468Z,43.37
2019-05-28T12:42:46.338Z,36.57
2019-05-28T12:45:15.012Z,18.30
2019-05-28T12:47:42.091Z,15.10
2019-05-28T12:50:19.177Z,14.70
2019-05-28T12:52:38.841Z,25.10
2019-05-28T12:55:07.920Z,20.67
2019-05-28T12:57:34.910Z,15.93
2019-05-28T13:00:02.495Z,13.47
2019-05-28T13:02:29.778Z,13.40
2019-05-28T13:04:56.655Z,12.40
2019-05-28T13:07:23.502Z,13.03
2019-05-28T13:09:50.698Z,10.97
2019-05-28T13:12:18.060Z,10.87
2019-05-28T13:14:44.931Z,11.13
2019-05-28T13:17:11.982Z,11.47
2019-05-28T13:19:38.962Z,9.93
2019-05-28T13:22:06.286Z,9.93
2019-05-28T13:24:33.565Z,10.57
2019-05-28T13:27:16.999Z,9.70
2019-05-28T13:29:29.613Z,9.50
2019-05-28T13:31:56.472Z,10.30
2019-05-28T13:34:23.441Z,10.93
2019-05-28T13:36:50.413Z,11.13
2019-05-28T13:39:17.277Z,11.30
2019-05-28T13:41:44.137Z,11.30
2019-05-28T13:44:11.115Z,12.57
2019-05-28T13:46:38.250Z,12.30
2019-05-28T13:49:05.228Z,13.13
2019-05-28T13:51:32.222Z,14.40
2019-05-28T13:53:59.074Z,19.57
2019-05-28T13:56:26.047Z,15.50
2019-05-28T13:58:53.016Z,13.33
2019-05-28T14:01:19.877Z,13.80
2019-05-28T14:03:46.850Z,14.47
2019-05-28T14:06:13.840Z,11.27
2019-05-28T14:08:46.787Z,13.20
2019-05-28T14:11:09.712Z,10.30
2019-05-28T14:13:36.579Z,11.20
2019-05-28T14:16:04.213Z,11.43
2019-05-28T14:18:31.234Z,12.03
2019-05-28T14:20:58.188Z,11.30
2019-05-28T14:23:25.737Z,9.50
2019-05-28T14:25:52.664Z,10.00
2019-05-28T14:28:19.524Z,12.20
2019-05-28T14:30:59.303Z,11.17
2019-05-28T14:33:15.268Z,12.40
2019-05-28T14:35:42.233Z,12.40
2019-05-28T14:38:09.104Z,11.70
2019-05-28T14:40:36.122Z,13.90
2019-05-28T14:43:03.273Z,14.30
2019-05-28T14:45:30.244Z,11.50
2019-05-28T14:47:57.092Z,11.60
2019-05-28T14:50:24.249Z,10.47
2019-05-28T14:52:51.287Z,11.27
2019-05-28T14:55:18.389Z,11.90
2019-05-28T14:57:45.676Z,13.67
2019-05-28T15:00:13.541Z,12.30
2019-05-28T15:02:41.660Z,14.00
2019-05-28T15:05:08.846Z,15.30
2019-05-28T15:07:35.820Z,16.30
2019-05-28T15:10:03.853Z,15.97
2019-05-28T15:12:30.705Z,16.63
2019-05-28T15:14:57.574Z,17.80
2019-05-28T15:17:26.712Z,15.50
2019-05-28T15:19:53.311Z,17.10
2019-05-28T15:22:20.251Z,17.77
2019-05-28T15:24:49.806Z,18.57
2019-05-28T15:27:16.312Z,19.83
2019-05-28T15:29:43.291Z,20.40
2019-05-28T15:32:10.465Z,22.77
2019-05-28T15:34:37.442Z,26.87
2019-05-28T15:37:04.312Z,27.50
2019-05-28T15:39:39.743Z,31.27
2019-05-28T15:41:59.994Z,30.73
2019-05-28T15:44:26.864Z,32.70
2019-05-28T15:46:53.727Z,37.37
2019-05-28T15:49:20.596Z,37.43
2019-05-28T15:51:48.140Z,45.63
2019-05-28T15:54:14.996Z,46.53
2019-05-28T15:56:41.952Z,49.30
2019-05-28T15:59:08.820Z,47.07
2019-05-28T16:01:35.989Z,46.70
2019-05-28T16:04:03.091Z,50.90
2019-05-28T16:06:29.964Z,47.23
2019-05-28T16:08:56.817Z,52.67
2019-05-28T16:11:23.708Z,53.27
2019-05-28T16:13:50.576Z,52.60
2019-05-28T16:16:17.534Z,51.27
2019-05-28T16:18:44.388Z,46.20
2019-05-28T16:21:11.638Z,44.80
2019-05-28T16:23:38.732Z,47.90
2019-05-28T16:26:05.607Z,53.53
2019-05-28T16:28:32.566Z,51.80
2019-05-28T16:31:11.764Z,51.00
2019-05-28T16:33:28.201Z,50.13
2019-05-28T16:35:55.155Z,45.87
2019-05-28T16:38:22.119Z,46.00
2019-05-28T16:40:49.009Z,50.07
2019-05-28T16:43:15.876Z,47.23
2019-05-28T16:45:43.017Z,52.03
2019-05-28T16:48:09.884Z,55.17
2019-05-28T16:50:37.012Z,46.77
2019-05-28T16:53:04.141Z,44.53
2019-05-28T16:55:31.214Z,41.50
2019-05-28T16:57:59.048Z,40.37
2019-05-28T17:00:26.123Z,38.07
2019-05-28T17:02:53.200Z,35.90
2019-05-28T17:05:20.173Z,42.83
2019-05-28T17:07:47.048Z,39.87
2019-05-28T17:10:30.912Z,38.10
2019-05-28T17:12:43.409Z,36.57
2019-05-28T17:15:11.068Z,29.13
2019-05-28T17:17:38.300Z,30.17
2019-05-28T17:20:05.708Z,32.87
2019-05-28T17:22:34.051Z,37.87
2019-05-28T17:25:01.184Z,26.47
2019-05-28T17:27:28.050Z,26.03
2019-05-28T17:29:54.913Z,23.37
2019-05-28T17:32:21.803Z,20.93
2019-05-28T17:34:48.980Z,17.63
2019-05-28T17:37:15.949Z,16.93
2019-05-28T17:39:43.190Z,18.63
2019-05-28T17:42:10.161Z,16.57
2019-05-28T17:44:37.115Z,16.23
2019-05-28T17:47:04.188Z,15.10
2019-05-28T17:49:31.052Z,14.10
2019-05-28T17:51:58.076Z,15.57
2019-05-28T17:54:24.936Z,14.40
2019-05-28T17:56:51.800Z,14.20
2019-05-28T17:59:18.769Z,14.03
2019-05-28T18:01:46.647Z,14.10
2019-05-28T18:04:14.028Z,15.20
2019-05-28T18:06:41.280Z,14.10
2019-05-28T18:09:09.045Z,17.83
2019-05-28T18:11:35.904Z,13.70
2019-05-28T18:14:02.976Z,18.50
2019-05-28T18:16:29.833Z,13.63
2019-05-28T18:19:00.427Z,13.50
2019-05-28T18:21:25.488Z,15.87
2019-05-28T18:23:52.440Z,14.80
2019-05-28T18:26:19.312Z,14.97
2019-05-28T18:28:46.204Z,14.20
2019-05-28T18:31:13.069Z,13.20
2019-05-28T18:33:39.931Z,15.73
2019-05-28T18:36:07.010Z,17.10
2019-05-28T18:38:34.229Z,15.23
2019-05-28T18:41:01.914Z,14.57
2019-05-28T18:43:29.056Z,15.37
2019-05-28T18:45:56.368Z,14.40
2019-05-28T18:48:23.561Z,13.67
2019-05-28T18:50:50.424Z,13.97
2019-05-28T18:53:17.309Z,13.87
2019-05-28T18:55:44.152Z,13.63
2019-05-28T18:58:11.124Z,16.20
2019-05-28T19:00:38.495Z,13.70
2019-05-28T19:03:05.637Z,14.10
2019-05-28T19:05:35.389Z,17.10
2019-05-28T19:08:14.293Z,14.00
2019-05-28T19:10:44.348Z,14.37
2019-05-28T19:13:11.548Z,13.80
2019-05-28T19:15:39.100Z,14.30
2019-05-28T19:18:06.100Z,15.47
2019-05-28T19:20:33.175Z,13.60
2019-05-28T19:23:00.080Z,14.40
2019-05-28T19:25:27.212Z,15.80
2019-05-28T19:27:54.099Z,14.30
2019-05-28T19:30:31.629Z,15.10
2019-05-28T19:32:58.720Z,15.00
2019-05-28T19:35:25.592Z,15.90
2019-05-28T19:37:52.572Z,14.07
2019-05-28T19:40:33.776Z,14.40
2019-05-28T19:43:00.668Z,13.20
2019-05-28T19:45:27.537Z,15.87
2019-05-28T19:47:54.411Z,15.27
2019-05-28T19:50:21.497Z,16.50
2019-05-28T19:52:48.666Z,13.93
2019-05-28T19:55:16.039Z,14.37
2019-05-28T19:57:43.063Z,14.20
2019-05-28T20:00:10.240Z,12.77
2019-05-28T20:02:37.206Z,14.20
2019-05-28T20:05:04.817Z,14.10
2019-05-28T20:07:31.989Z,14.77
2019-05-28T20:09:58.865Z,13.83
2019-05-28T20:12:25.732Z,16.40
2019-05-28T20:14:52.695Z,16.83
2019-05-28T20:17:19.601Z,14.63
2019-05-28T20:19:47.427Z,13.70
2019-05-28T20:22:14.509Z,13.43
2019-05-28T20:24:41.360Z,14.07
2019-05-28T20:27:08.237Z,15.13
2019-05-28T20:29:35.100Z,13.00
2019-05-28T20:32:03.095Z,14.47
2019-05-28T20:34:30.065Z,15.30
2019-05-28T20:36:56.936Z,16.27
2019-05-28T20:39:23.805Z,16.33
2019-05-28T20:41:51.044Z,13.17
2019-05-28T20:44:17.999Z,16.20
2019-05-28T20:46:44.897Z,15.97
2019-05-28T20:49:11.771Z,14.07
2019-05-28T20:51:38.643Z,15.03
2019-05-28T20:54:05.821Z,14.50
2019-05-28T20:56:32.716Z,13.70
2019-05-28T20:59:01.337Z,14.50
2019-05-28T21:01:28.653Z,13.77
2019-05-28T21:03:55.929Z,13.27
2019-05-28T21:06:22.916Z,13.67
2019-05-28T21:08:49.968Z,12.83
2019-05-28T21:11:16.877Z,13.90
2019-05-28T21:13:43.753Z,14.00
2019-05-28T21:16:13.708Z,13.70
2019-05-28T21:18:40.692Z,14.33
2019-05-28T21:21:07.676Z,15.23
2019-05-28T21:23:34.780Z,14.60
2019-05-28T21:26:01.985Z,13.23
2019-05-28T21:28:28.953Z,12.80
2019-05-28T21:30:56.792Z,14.10
2019-05-28T21:33:23.918Z,13.63
2019-05-28T21:35:51.076Z,15.37
2019-05-28T21:38:18.364Z,13.97
2019-05-28T21:40:45.325Z,13.67
2019-05-28T21:43:12.380Z,14.07
2019-05-28T21:45:39.247Z,13.60
2019-05-28T21:48:06.217Z,13.83
2019-05-28T21:50:33.458Z,14.30
2019-05-28T21:53:01.187Z,14.83
2019-05-28T21:55:28.152Z,17.27
2019-05-28T21:57:55.827Z,14.27
2019-05-28T22:00:34.473Z,16.13
2019-05-28T22:03:02.717Z,16.57
2019-05-28T22:05:29.716Z,16.90
2019-05-28T22:07:57.326Z,18.10
2019-05-28T22:10:24.460Z,16.60
2019-05-28T22:12:51.957Z,18.40
2019-05-28T22:15:19.032Z,16.60
2019-05-28T22:17:45.896Z,15.87
2019-05-28T22:20:13.082Z,17.57
2019-05-28T22:22:40.253Z,15.80
2019-05-28T22:25:07.437Z,16.17
2019-05-28T22:27:34.420Z,16.77
2019-05-28T22:30:04.277Z,17.53
2019-05-28T22:32:30.356Z,17.83
2019-05-28T22:34:57.894Z,20.10
2019-05-28T22:37:25.100Z,17.90
2019-05-28T22:39:52.108Z,18.70
2019-05-28T22:42:19.672Z,19.80
2019-05-28T22:44:46.534Z,17.80
2019-05-28T22:47:13.647Z,19.53
2019-05-28T22:49:40.531Z,20.30
2019-05-28T22:52:08.105Z,18.40
2019-05-28T22:54:35.080Z,18.03
2019-05-28T22:57:03.258Z,20.53
2019-05-28T22:59:30.825Z,17.80
2019-05-28T23:01:58.725Z,18.23
2019-05-28T23:04:25.928Z,19.80
2019-05-28T23:06:52.892Z,17.73
2019-05-28T23:09:19.793Z,17.53
2019-05-28T23:11:46.664Z,18.40
2019-05-28T23:14:13.549Z,17.87
2019-05-28T23:16:40.425Z,17.63
2019-05-28T23:19:08.616Z,19.23
2019-05-28T23:21:35.775Z,17.77
2019-05-28T23:24:03.131Z,15.10
2019-05-28T23:26:30.533Z,20.63
2019-05-28T23:28:57.426Z,16.83
2019-05-28T23:31:24.320Z,15.43
2019-05-28T23:33:51.200Z,14.40
2019-05-28T23:36:18.406Z,14.50
2019-05-28T23:38:45.645Z,14.90
2019-05-28T23:41:13.546Z,15.63
2019-05-28T23:43:40.623Z,14.23
2019-05-28T23:46:07.882Z,15.40
2019-05-28T23:48:35.181Z,15.10
2019-05-28T23:51:02.157Z,14.00
2019-05-28T23:53:29.409Z,15.50
2019-05-28T23:55:56.278Z,14.40
2019-05-28T23:58:23.289Z,14.37
